Time,TemperatureF,DewpointF,PressureIn,WindDirection,WindDirectionDegrees,WindSpeedMPH,WindSpeedGustMPH,Humidity,HourlyPrecipIn,Conditions,Clouds,dailyrainin,SolarRadiationWatts/m^2,SoftwareType,DateUTC
2013-02-14 00:21:00,42.0,24.0,-100.00,North,1,8.0,12.0,48,0.00,,,0.00,0.000000,,2013-02-14 08:21:00,
2013-02-14 00:31:00,42.0,24.0,-100.00,North,1,8.0,12.0,48,0.00,,,0.00,0.000000,,2013-02-14 08:31:00,
2013-02-14 00:43:00,42.0,24.0,-100.00,North,1,8.0,12.0,48,0.00,,,0.00,0.000000,,2013-02-14 08:43:00,
2013-02-14 00:52:00,42.0,24.0,-100.00,North,1,8.0,12.0,48,0.00,,,0.00,0.000000,,2013-02-14 08:52:00,
2013-02-14 01:21:00,44.0,25.0,-100.00,North,9,12.0,18.0,46,0.00,,,0.00,0.000000,,2013-02-14 09:21:00,
2013-02-14 01:31:00,44.0,25.0,-100.00,North,9,12.0,18.0,46,0.00,,,0.00,0.000000,,2013-02-14 09:31:00,
2013-02-14 01:41:00,44.0,25.0,-100.00,North,9,12.0,18.0,46,0.00,,,0.00,0.000000,,2013-02-14 09:41:00,
2013-02-14 01:51:00,44.0,25.0,-100.00,North,9,12.0,18.0,46,0.00,,,0.00,0.000000,,2013-02-14 09:51:00,
2013-02-14 02:21:00,43.0,24.0,-100.00,North,9,13.0,20.0,47,0.00,,,0.00,0.000000,,2013-02-14 10:21:00,
2013-02-14 02:31:00,43.0,24.0,-100.00,North,9,13.0,20.0,47,0.00,,,0.00,0.000000,,2013-02-14 10:31:00,
2013-02-14 02:41:00,43.0,24.0,-100.00,North,9,13.0,20.0,47,0.00,,,0.00,0.000000,,2013-02-14 10:41:00,
2013-02-14 02:52:00,43.0,24.0,-100.00,North,9,13.0,20.0,47,0.00,,,0.00,0.000000,,2013-02-14 10:52:00,
2013-02-14 03:21:00,43.0,24.0,-100.00,North,10,13.0,22.0,47,0.00,,,0.00,0.000000,,2013-02-14 11:21:00,
2013-02-14 03:31:00,43.0,24.0,-100.00,North,10,13.0,22.0,47,0.00,,,0.00,0.000000,,2013-02-14 11:31:00,
2013-02-14 03:42:00,43.0,24.0,-100.00,North,10,13.0,22.0,47,0.00,,,0.00,0.000000,,2013-02-14 11:42:00,
2013-02-14 03:52:00,43.0,24.0,-100.00,North,10,13.0,22.0,47,0.00,,,0.00,0.000000,,2013-02-14 11:52:00,
2013-02-14 04:22:00,43.0,23.0,-100.00,NNW,346,7.0,24.0,45,0.00,,,0.00,0.000000,,2013-02-14 12:22:00,
2013-02-14 04:32:00,43.0,23.0,-100.00,NNW,346,7.0,24.0,45,0.00,,,0.00,0.000000,,2013-02-14 12:32:00,
2013-02-14 04:42:00,43.0,23.0,-100.00,NNW,346,7.0,24.0,45,0.00,,,0.00,0.000000,,2013-02-14 12:42:00,
2013-02-14 04:53:00,43.0,23.0,-100.00,NNW,346,7.0,24.0,45,0.00,,,0.00,0.000000,,2013-02-14 12:53:00,
2013-02-14 05:21:00,39.0,22.0,-100.00,NW,326,4.0,14.0,51,0.00,,,0.00,0.000000,,2013-02-14 13:21:00,
2013-02-14 05:31:00,39.0,22.0,-100.00,NW,326,4.0,14.0,51,0.00,,,0.00,0.000000,,2013-02-14 13:31:00,
2013-02-14 05:41:00,39.0,22.0,-100.00,NW,326,4.0,14.0,51,0.00,,,0.00,0.000000,,2013-02-14 13:41:00,
2013-02-14 05:51:00,39.0,22.0,-100.00,NW,326,4.0,14.0,51,0.00,,,0.00,0.000000,,2013-02-14 13:51:00,
2013-02-14 06:21:00,40.0,24.0,-100.00,NNE,18,6.0,10.0,52,0.00,,,0.00,0.000000,,2013-02-14 14:21:00,
2013-02-14 06:31:00,40.0,24.0,-100.00,NNE,18,6.0,10.0,52,0.00,,,0.00,0.000000,,2013-02-14 14:31:00,
2013-02-14 06:41:00,40.0,24.0,-100.00,NNE,18,6.0,10.0,52,0.00,,,0.00,0.000000,,2013-02-14 14:41:00,
2013-02-14 06:52:00,40.0,24.0,-100.00,NNE,18,6.0,10.0,52,0.00,,,0.00,0.000000,,2013-02-14 14:52:00,
2013-02-14 07:21:00,40.0,22.0,-100.00,North,9,8.0,14.0,48,0.00,,,0.00,2.000000,,2013-02-14 15:21:00,
2013-02-14 07:31:00,40.0,22.0,-100.00,North,9,8.0,14.0,48,0.00,,,0.00,2.000000,,2013-02-14 15:31:00,
2013-02-14 07:41:00,40.0,22.0,-100.00,North,9,8.0,14.0,48,0.00,,,0.00,2.000000,,2013-02-14 15:41:00,
2013-02-14 07:51:00,40.0,22.0,-100.00,North,9,8.0,14.0,48,0.00,,,0.00,2.000000,,2013-02-14 15:51:00,
2013-02-14 08:21:00,44.0,22.0,-100.00,NNE,17,11.0,19.0,42,0.00,,,0.00,69.000000,,2013-02-14 16:21:00,
2013-02-14 08:31:00,44.0,22.0,-100.00,NNE,17,11.0,19.0,42,0.00,,,0.00,69.000000,,2013-02-14 16:31:00,
2013-02-14 08:41:00,44.0,22.0,-100.00,NNE,17,11.0,19.0,42,0.00,,,0.00,69.000000,,2013-02-14 16:41:00,
2013-02-14 08:51:00,44.0,22.0,-100.00,NNE,17,11.0,19.0,42,0.00,,,0.00,69.000000,,2013-02-14 16:51:00,
2013-02-14 09:21:00,47.0,25.0,-100.00,SSW,194,4.0,14.0,42,0.00,,,0.00,335.000000,,2013-02-14 17:21:00,
2013-02-14 09:31:00,47.0,25.0,-100.00,SSW,194,4.0,14.0,42,0.00,,,0.00,335.000000,,2013-02-14 17:31:00,
2013-02-14 09:41:00,47.0,25.0,-100.00,SSW,194,4.0,14.0,42,0.00,,,0.00,335.000000,,2013-02-14 17:41:00,
2013-02-14 09:52:00,47.0,25.0,-100.00,SSW,194,4.0,14.0,42,0.00,,,0.00,335.000000,,2013-02-14 17:52:00,
2013-02-14 10:22:00,57.0,27.0,-100.00,South,174,4.0,9.0,32,0.00,,,0.00,538.000000,,2013-02-14 18:22:00,
2013-02-14 11:21:00,60.0,27.0,-100.00,SSE,168,7.0,12.0,28,0.00,,,0.00,692.000000,,2013-02-14 19:21:00,
2013-02-14 11:31:00,60.0,27.0,-100.00,SSE,168,7.0,12.0,28,0.00,,,0.00,692.000000,,2013-02-14 19:31:00,
2013-02-14 11:41:00,60.0,27.0,-100.00,SSE,168,7.0,12.0,28,0.00,,,0.00,692.000000,,2013-02-14 19:41:00,
2013-02-14 11:51:00,60.0,27.0,-100.00,SSE,168,7.0,12.0,28,0.00,,,0.00,692.000000,,2013-02-14 19:51:00,
2013-02-14 12:21:00,64.0,23.0,-100.00,SSE,163,7.0,11.0,21,0.00,,,0.00,782.000000,,2013-02-14 20:21:00,
2013-02-14 12:31:00,64.0,23.0,-100.00,SSE,163,7.0,11.0,21,0.00,,,0.00,782.000000,,2013-02-14 20:31:00,
2013-02-14 12:41:00,64.0,23.0,-100.00,SSE,163,7.0,11.0,21,0.00,,,0.00,782.000000,,2013-02-14 20:41:00,
2013-02-14 12:52:00,64.0,23.0,-100.00,SSE,163,7.0,11.0,21,0.00,,,0.00,782.000000,,2013-02-14 20:52:00,
2013-02-14 13:21:00,67.0,22.0,-100.00,SSE,166,11.0,19.0,18,0.00,,,0.00,805.000000,,2013-02-14 21:21:00,
2013-02-14 13:31:00,67.0,22.0,-100.00,SSE,166,11.0,19.0,18,0.00,,,0.00,805.000000,,2013-02-14 21:31:00,
2013-02-14 13:41:00,67.0,22.0,-100.00,SSE,166,11.0,19.0,18,0.00,,,0.00,805.000000,,2013-02-14 21:41:00,
2013-02-14 13:51:00,67.0,22.0,-100.00,SSE,166,11.0,19.0,18,0.00,,,0.00,805.000000,,2013-02-14 21:51:00,
2013-02-14 14:21:00,69.0,18.0,-100.00,South,182,13.0,21.0,14,0.00,,,0.00,754.000000,,2013-02-14 22:21:00,
2013-02-14 14:31:00,69.0,18.0,-100.00,South,182,13.0,21.0,14,0.00,,,0.00,754.000000,,2013-02-14 22:31:00,
2013-02-14 15:21:00,70.0,15.0,-100.00,SW,222,13.0,27.0,12,0.00,,,0.00,633.000000,,2013-02-14 23:21:00,
2013-02-14 15:31:00,70.0,15.0,-100.00,SW,222,13.0,27.0,12,0.00,,,0.00,633.000000,,2013-02-14 23:31:00,
2013-02-14 15:41:00,70.0,15.0,-100.00,SW,222,13.0,27.0,12,0.00,,,0.00,633.000000,,2013-02-14 23:41:00,
2013-02-14 15:52:00,70.0,15.0,-100.00,SW,222,13.0,27.0,12,0.00,,,0.00,633.000000,,2013-02-14 23:52:00,
2013-02-14 16:21:00,70.0,19.0,-100.00,SW,228,11.0,22.0,14,0.00,,,0.00,452.000000,,2013-02-15 00:21:00,
2013-02-14 16:31:00,70.0,19.0,-100.00,SW,228,11.0,22.0,14,0.00,,,0.00,452.000000,,2013-02-15 00:31:00,
2013-02-14 16:41:00,70.0,19.0,-100.00,SW,228,11.0,22.0,14,0.00,,,0.00,452.000000,,2013-02-15 00:41:00,
2013-02-14 16:51:00,70.0,19.0,-100.00,SW,228,11.0,22.0,14,0.00,,,0.00,452.000000,,2013-02-15 00:51:00,
2013-02-14 17:21:00,68.0,15.0,-100.00,South,177,21.0,36.0,13,0.00,,,0.00,207.000000,,2013-02-15 01:21:00,
2013-02-14 17:31:00,68.0,15.0,-100.00,South,177,21.0,36.0,13,0.00,,,0.00,207.000000,,2013-02-15 01:31:00,
2013-02-14 18:21:00,59.0,33.0,-100.00,SSE,156,22.0,33.0,37,0.00,,,0.00,10.000000,,2013-02-15 02:21:00,
2013-02-14 18:31:00,59.0,33.0,-100.00,SSE,156,22.0,33.0,37,0.00,,,0.00,10.000000,,2013-02-15 02:31:00,
2013-02-14 18:41:00,59.0,33.0,-100.00,SSE,156,22.0,33.0,37,0.00,,,0.00,10.000000,,2013-02-15 02:41:00,
2013-02-14 18:52:00,59.0,33.0,-100.00,SSE,156,22.0,33.0,37,0.00,,,0.00,10.000000,,2013-02-15 02:52:00,
2013-02-14 19:21:00,55.0,35.0,-100.00,SE,140,10.0,25.0,46,0.00,,,0.00,0.000000,,2013-02-15 03:21:00,
2013-02-14 19:41:00,55.0,35.0,-100.00,SE,140,10.0,25.0,46,0.00,,,0.00,0.000000,,2013-02-15 03:41:00,
2013-02-14 19:51:00,55.0,35.0,-100.00,SE,140,10.0,25.0,46,0.00,,,0.00,0.000000,,2013-02-15 03:51:00,
2013-02-14 20:21:00,53.0,30.0,-100.00,NNE,12,9.0,13.0,41,0.00,,,0.00,0.000000,,2013-02-15 04:21:00,
2013-02-14 20:31:00,53.0,30.0,-100.00,NNE,12,9.0,13.0,41,0.00,,,0.00,0.000000,,2013-02-15 04:31:00,
2013-02-14 20:41:00,53.0,30.0,-100.00,NNE,12,9.0,13.0,41,0.00,,,0.00,0.000000,,2013-02-15 04:41:00,
2013-02-14 20:51:00,53.0,30.0,-100.00,NNE,12,9.0,13.0,41,0.00,,,0.00,0.000000,,2013-02-15 04:51:00,
2013-02-14 21:22:00,53.0,29.0,-100.00,North,9,12.0,14.0,40,0.00,,,0.00,0.000000,,2013-02-15 05:22:00,
2013-02-14 21:32:00,53.0,29.0,-100.00,North,9,12.0,14.0,40,0.00,,,0.00,0.000000,,2013-02-15 05:32:00,
2013-02-14 21:41:00,53.0,29.0,-100.00,North,9,12.0,14.0,40,0.00,,,0.00,0.000000,,2013-02-15 05:41:00,
2013-02-14 21:52:00,53.0,29.0,-100.00,North,9,12.0,14.0,40,0.00,,,0.00,0.000000,,2013-02-15 05:52:00,
2013-02-14 22:21:00,49.0,26.0,-100.00,NNE,12,14.0,18.0,40,0.00,,,0.00,0.000000,,2013-02-15 06:21:00,
2013-02-14 22:31:00,49.0,26.0,-100.00,NNE,12,14.0,18.0,40,0.00,,,0.00,0.000000,,2013-02-15 06:31:00,
2013-02-14 22:42:00,49.0,26.0,-100.00,NNE,12,14.0,18.0,40,0.00,,,0.00,0.000000,,2013-02-15 06:42:00,
2013-02-14 22:51:00,49.0,26.0,-100.00,NNE,12,14.0,18.0,40,0.00,,,0.00,0.000000,,2013-02-15 06:51:00,
2013-02-14 23:21:00,49.0,25.0,-100.00,North,11,13.0,21.0,39,0.00,,,0.00,0.000000,,2013-02-15 07:21:00,
2013-02-14 23:31:00,49.0,25.0,-100.00,North,11,13.0,21.0,39,0.00,,,0.00,0.000000,,2013-02-15 07:31:00,
2013-02-14 23:41:00,49.0,25.0,-100.00,North,11,13.0,21.0,39,0.00,,,0.00,0.000000,,2013-02-15 07:41:00,
2013-02-14 23:52:00,49.0,25.0,-100.00,North,11,13.0,21.0,39,0.00,,,0.00,0.000000,,2013-02-15 07:52:00,